createdAt,value
2022-10-26T00:01:15.081Z,11.31
2022-10-26T00:03:44.458Z,11.27
2022-10-26T00:06:13.726Z,11.19
2022-10-26T00:08:41.384Z,11.14
2022-10-26T00:11:09.098Z,11.10
2022-10-26T00:13:36.846Z,11.07
2022-10-26T00:16:16.649Z,11.06
2022-10-26T00:18:44.507Z,11.00
2022-10-26T00:21:12.152Z,10.98
2022-10-26T00:23:39.538Z,10.99
2022-10-26T00:26:07.158Z,10.97
2022-10-26T00:28:35.029Z,10.96
2022-10-26T00:31:03.777Z,10.97
2022-10-26T00:33:32.508Z,10.94
2022-10-26T00:35:59.900Z,10.91
2022-10-26T00:38:27.019Z,10.85
2022-10-26T00:40:53.884Z,10.82
2022-10-26T00:43:26.839Z,10.76
2022-10-26T00:45:56.709Z,10.74
2022-10-26T00:48:28.631Z,10.70
2022-10-26T00:50:58.834Z,10.61
2022-10-26T00:53:26.539Z,10.62
2022-10-26T00:55:54.525Z,10.58
2022-10-26T00:58:23.297Z,10.56
2022-10-26T01:00:50.413Z,10.51
2022-10-26T01:03:18.317Z,10.48
2022-10-26T01:05:47.787Z,10.41
2022-10-26T01:08:16.908Z,10.37
2022-10-26T01:10:44.108Z,10.31
2022-10-26T01:13:13.205Z,10.26
2022-10-26T01:15:51.800Z,10.21
2022-10-26T01:18:45.558Z,10.10
2022-10-26T01:21:30.262Z,10.04
2022-10-26T01:24:06.501Z,10.00
2022-10-26T01:26:45.555Z,9.97
2022-10-26T01:29:40.373Z,9.94
2022-10-26T01:32:14.411Z,9.93
2022-10-26T01:34:48.970Z,9.92
2022-10-26T01:37:28.846Z,9.93
2022-10-26T01:40:06.126Z,9.94
2022-10-26T01:42:37.278Z,9.94
2022-10-26T01:45:09.520Z,9.95
2022-10-26T01:47:39.258Z,9.96
2022-10-26T01:50:08.873Z,9.94
2022-10-26T01:52:35.652Z,9.88
2022-10-26T01:55:07.740Z,9.88
2022-10-26T01:57:36.922Z,9.87
2022-10-26T02:00:09.646Z,9.81
2022-10-26T02:02:59.958Z,9.73
2022-10-26T02:05:29.868Z,9.66
2022-10-26T02:08:08.809Z,9.59
2022-10-26T02:10:57.590Z,9.52
2022-10-26T02:13:45.445Z,9.47
2022-10-26T02:16:27.735Z,9.48
2022-10-26T02:19:12.654Z,9.45
2022-10-26T02:21:49.030Z,9.45
2022-10-26T02:24:17.424Z,9.46
2022-10-26T02:26:47.290Z,9.50
2022-10-26T02:29:18.973Z,9.48
2022-10-26T02:31:49.247Z,9.47
2022-10-26T02:34:22.222Z,9.53
2022-10-26T02:36:50.919Z,9.51
2022-10-26T02:39:19.534Z,9.54
2022-10-26T02:41:48.860Z,9.62
2022-10-26T02:44:27.943Z,9.68
2022-10-26T02:46:55.820Z,9.70
2022-10-26T02:49:22.736Z,9.77
2022-10-26T02:51:51.914Z,9.83
2022-10-26T02:54:33.611Z,9.88
2022-10-26T02:57:27.037Z,9.95
2022-10-26T02:59:54.224Z,10.02
2022-10-26T03:02:23.262Z,10.04
2022-10-26T03:04:51.264Z,10.09
2022-10-26T03:07:25.374Z,10.10
2022-10-26T03:09:52.211Z,10.17
2022-10-26T03:12:19.237Z,10.16
2022-10-26T03:14:46.484Z,10.16
2022-10-26T03:17:13.456Z,10.16
2022-10-26T03:19:40.183Z,10.17
2022-10-26T03:22:07.139Z,10.20
2022-10-26T03:24:34.046Z,10.19
2022-10-26T03:27:02.300Z,10.24
2022-10-26T03:29:29.700Z,10.29
2022-10-26T03:31:56.689Z,10.28
2022-10-26T03:34:23.487Z,10.31
2022-10-26T03:36:50.501Z,10.33
2022-10-26T03:39:17.542Z,10.36
2022-10-26T03:41:44.614Z,10.43
2022-10-26T03:44:11.431Z,10.45
2022-10-26T03:46:38.381Z,10.48
2022-10-26T03:49:05.309Z,10.53
2022-10-26T03:51:32.333Z,10.54
2022-10-26T03:53:59.066Z,10.60
2022-10-26T03:56:26.140Z,10.63
2022-10-26T03:58:52.949Z,10.67
2022-10-26T04:01:19.975Z,10.69
2022-10-26T04:03:46.803Z,10.69
2022-10-26T04:06:14.409Z,10.73
2022-10-26T04:08:41.189Z,10.74
2022-10-26T04:11:08.195Z,10.76
2022-10-26T04:13:35.194Z,10.78
2022-10-26T04:16:02.192Z,10.78
2022-10-26T04:18:28.943Z,10.75
2022-10-26T04:20:55.982Z,10.78
2022-10-26T04:23:22.781Z,10.77
2022-10-26T04:25:49.718Z,10.75
2022-10-26T04:28:16.491Z,10.78
2022-10-26T04:30:43.553Z,10.79
2022-10-26T04:33:10.387Z,10.75
2022-10-26T04:35:37.432Z,10.78
2022-10-26T04:38:06.306Z,10.81
2022-10-26T04:40:34.318Z,10.82
2022-10-26T04:43:01.111Z,10.82
2022-10-26T04:45:30.826Z,10.81
2022-10-26T04:48:00.608Z,10.79
2022-10-26T04:50:28.495Z,10.76
2022-10-26T04:52:55.504Z,10.77
2022-10-26T04:55:22.573Z,10.70
2022-10-26T04:57:49.668Z,10.65
2022-10-26T05:00:16.914Z,10.60
2022-10-26T05:02:43.795Z,10.56
2022-10-26T05:05:14.135Z,10.54
2022-10-26T05:07:42.126Z,10.55
2022-10-26T05:10:09.846Z,10.54
2022-10-26T05:12:36.626Z,10.53
2022-10-26T05:15:06.473Z,10.52
2022-10-26T05:17:35.288Z,10.54
2022-10-26T05:20:06.003Z,10.54
2022-10-26T05:22:32.807Z,10.51
2022-10-26T05:24:59.812Z,10.54
2022-10-26T05:27:26.591Z,10.58
2022-10-26T05:29:53.593Z,10.59
2022-10-26T05:32:20.362Z,10.61
2022-10-26T05:34:47.994Z,10.62
2022-10-26T05:37:14.752Z,10.69
2022-10-26T05:39:43.456Z,10.70
2022-10-26T05:42:10.217Z,10.72
2022-10-26T05:44:37.152Z,10.76
2022-10-26T05:47:03.954Z,10.76
2022-10-26T05:49:30.906Z,10.83
2022-10-26T05:51:57.650Z,10.89
2022-10-26T05:54:24.704Z,10.94
2022-10-26T05:56:51.735Z,10.99
2022-10-26T05:59:19.018Z,11.07
2022-10-26T06:02:04.571Z,11.13
2022-10-26T06:04:43.134Z,11.22
2022-10-26T06:07:15.259Z,11.31
2022-10-26T06:09:43.014Z,11.41
2022-10-26T06:12:13.470Z,11.51
2022-10-26T06:14:42.934Z,11.54
2022-10-26T06:17:41.285Z,11.61
2022-10-26T06:20:38.146Z,11.67
2022-10-26T06:23:41.836Z,11.76
2022-10-26T06:26:44.263Z,11.84
2022-10-26T06:29:35.050Z,11.93
2022-10-26T06:32:02.218Z,12.04
2022-10-26T06:34:44.204Z,12.22
2022-10-26T06:37:11.410Z,12.48
2022-10-26T06:39:44.298Z,12.84
2022-10-26T06:42:12.009Z,13.12
2022-10-26T06:44:39.083Z,13.22
2022-10-26T06:47:15.447Z,13.63
2022-10-26T06:50:23.389Z,14.40
2022-10-26T06:53:20.540Z,15.04
2022-10-26T06:55:49.984Z,15.15
2022-10-26T06:58:23.859Z,15.01
2022-10-26T07:00:53.698Z,14.83
2022-10-26T07:03:20.961Z,15.17
2022-10-26T07:05:47.807Z,15.89
2022-10-26T07:08:14.859Z,16.71
2022-10-26T07:10:42.355Z,17.34
2022-10-26T07:13:10.840Z,17.92
2022-10-26T07:15:39.165Z,18.69
2022-10-26T07:18:07.943Z,19.17
2022-10-26T07:20:38.496Z,19.73
2022-10-26T07:23:11.502Z,19.99
2022-10-26T07:25:40.543Z,20.26
2022-10-26T07:28:10.532Z,20.34
2022-10-26T07:30:39.992Z,20.40
2022-10-26T07:33:12.371Z,20.52
2022-10-26T07:35:40.102Z,20.49
2022-10-26T07:38:08.421Z,20.83
2022-10-26T07:40:37.105Z,21.58
2022-10-26T07:43:04.854Z,22.24
2022-10-26T07:45:31.919Z,22.50
2022-10-26T07:47:58.932Z,21.99
2022-10-26T07:50:26.339Z,21.47
2022-10-26T07:52:53.642Z,21.34
2022-10-26T07:55:20.628Z,21.32
2022-10-26T07:57:50.972Z,21.38
2022-10-26T08:00:21.609Z,21.33
2022-10-26T08:02:48.595Z,21.15
2022-10-26T08:05:15.421Z,21.37
2022-10-26T08:07:46.182Z,22.02
2022-10-26T08:10:14.528Z,22.30
2022-10-26T08:12:43.298Z,22.56
2022-10-26T08:15:10.506Z,22.84
2022-10-26T08:17:37.511Z,23.27
2022-10-26T08:20:04.710Z,23.38
2022-10-26T08:22:31.866Z,22.81
2022-10-26T08:24:58.662Z,22.22
2022-10-26T08:27:25.936Z,21.83
2022-10-26T08:29:52.720Z,21.53
2022-10-26T08:32:19.736Z,21.78
2022-10-26T08:34:46.510Z,21.62
2022-10-26T08:37:13.527Z,21.05
2022-10-26T08:39:40.291Z,21.51
2022-10-26T08:42:34.329Z,21.33
2022-10-26T08:45:07.134Z,21.22
2022-10-26T08:47:44.134Z,21.47
2022-10-26T08:50:39.234Z,21.64
2022-10-26T08:53:17.565Z,21.45
2022-10-26T08:55:53.338Z,22.07
2022-10-26T08:58:25.959Z,22.18
2022-10-26T09:00:53.035Z,22.00
2022-10-26T09:03:20.114Z,21.41
2022-10-26T09:06:25.320Z,20.76
2022-10-26T09:08:55.060Z,21.08
2022-10-26T09:11:21.790Z,21.89
2022-10-26T09:14:15.356Z,22.72
2022-10-26T09:16:50.567Z,23.13
2022-10-26T09:19:32.014Z,23.23
2022-10-26T09:22:04.793Z,23.79
2022-10-26T09:24:33.741Z,23.77
2022-10-26T09:29:42.711Z,23.83
2022-10-26T09:32:26.920Z,23.99
2022-10-26T09:34:58.044Z,24.33
2022-10-26T09:37:31.910Z,24.42
2022-10-26T09:40:11.064Z,24.36
2022-10-26T09:42:51.503Z,24.63
2022-10-26T09:45:24.583Z,24.22
2022-10-26T09:47:54.707Z,23.51
2022-10-26T09:50:29.583Z,22.41
2022-10-26T09:52:56.715Z,21.99
2022-10-26T09:55:23.576Z,21.30
2022-10-26T09:57:54.215Z,21.43
2022-10-26T10:00:23.796Z,21.47
2022-10-26T10:02:53.801Z,21.62
2022-10-26T10:08:23.686Z,20.89
2022-10-26T10:10:56.878Z,20.51
2022-10-26T10:13:26.799Z,20.81
2022-10-26T10:16:11.354Z,21.31
2022-10-26T10:18:40.214Z,21.98
2022-10-26T10:21:08.355Z,22.51
2022-10-26T10:23:46.422Z,23.43
2022-10-26T10:26:13.222Z,24.43
2022-10-26T10:28:42.461Z,24.89
2022-10-26T10:31:22.609Z,25.13
2022-10-26T10:33:49.708Z,25.50
2022-10-26T10:36:20.375Z,25.98
2022-10-26T10:38:49.627Z,25.87
2022-10-26T10:41:39.439Z,25.15
2022-10-26T10:44:25.375Z,24.66
2022-10-26T10:47:00.810Z,23.38
2022-10-26T10:49:30.079Z,22.50
2022-10-26T10:51:56.945Z,21.56
2022-10-26T10:54:35.110Z,20.84
2022-10-26T10:57:13.759Z,19.90
2022-10-26T11:00:07.129Z,19.13
2022-10-26T11:03:04.369Z,18.33
2022-10-26T11:05:55.769Z,17.66
2022-10-26T11:08:37.897Z,17.31
2022-10-26T11:11:10.523Z,17.91
2022-10-26T11:13:48.709Z,19.14
2022-10-26T11:16:23.732Z,20.26
2022-10-26T11:19:03.094Z,20.90
2022-10-26T11:21:31.552Z,21.89
2022-10-26T11:23:58.346Z,23.00
2022-10-26T11:26:33.523Z,24.31
2022-10-26T11:29:07.416Z,25.40
2022-10-26T11:31:44.985Z,26.11
2022-10-26T11:34:26.561Z,25.23
2022-10-26T11:37:05.117Z,24.25
2022-10-26T11:39:44.016Z,23.98
2022-10-26T11:42:19.708Z,23.73
2022-10-26T11:44:59.428Z,23.76
2022-10-26T11:47:44.046Z,24.12
2022-10-26T11:50:17.649Z,23.81
2022-10-26T11:52:51.957Z,23.68
2022-10-26T11:55:21.046Z,23.95
2022-10-26T11:57:48.823Z,23.76
2022-10-26T12:00:19.081Z,24.11
2022-10-26T12:03:09.153Z,23.90
2022-10-26T12:05:50.623Z,23.26
2022-10-26T12:08:27.262Z,22.42
2022-10-26T12:11:29.725Z,22.73
2022-10-26T12:14:32.954Z,23.30
2022-10-26T12:17:20.992Z,22.92
2022-10-26T12:19:47.902Z,23.13
2022-10-26T12:22:17.544Z,23.74
2022-10-26T12:25:11.139Z,24.33
2022-10-26T12:27:40.763Z,24.75
2022-10-26T12:30:19.956Z,24.71
2022-10-26T12:32:50.071Z,24.65
2022-10-26T12:35:37.368Z,24.73
2022-10-26T12:38:29.034Z,25.17
2022-10-26T12:41:10.749Z,25.90
2022-10-26T12:43:39.999Z,26.23
2022-10-26T12:46:13.249Z,26.52
2022-10-26T12:48:44.768Z,26.89
2022-10-26T12:51:26.806Z,27.33
2022-10-26T12:54:21.245Z,27.86
2022-10-26T12:57:06.465Z,28.22
2022-10-26T12:59:40.731Z,28.67
2022-10-26T13:02:37.005Z,28.99
2022-10-26T13:05:28.490Z,29.19
2022-10-26T13:08:03.577Z,29.27
2022-10-26T13:10:30.844Z,29.47
2022-10-26T13:13:01.166Z,29.69
2022-10-26T13:15:31.211Z,29.83
2022-10-26T13:18:09.218Z,29.73
2022-10-26T13:20:38.072Z,29.72
2022-10-26T13:23:19.638Z,29.41
2022-10-26T13:26:06.038Z,29.27
2022-10-26T13:28:38.821Z,29.25
2022-10-26T13:31:20.982Z,29.17
2022-10-26T13:33:52.444Z,28.95
2022-10-26T13:36:38.702Z,28.50
2022-10-26T13:39:13.054Z,28.19
2022-10-26T13:41:43.726Z,28.01
2022-10-26T13:44:25.872Z,27.69
2022-10-26T13:46:59.442Z,27.33
2022-10-26T13:49:36.606Z,26.94
2022-10-26T13:52:05.742Z,26.70
2022-10-26T13:54:44.837Z,26.45
2022-10-26T13:57:11.484Z,25.90
2022-10-26T13:59:43.135Z,25.64
2022-10-26T14:02:30.576Z,24.87
2022-10-26T14:05:02.634Z,24.17
2022-10-26T14:07:54.145Z,23.40
2022-10-26T14:10:29.550Z,22.83
2022-10-26T14:12:57.642Z,22.31
2022-10-26T14:15:30.949Z,21.89
2022-10-26T14:17:59.857Z,21.54
2022-10-26T14:20:28.194Z,21.05
2022-10-26T14:22:55.090Z,20.59
2022-10-26T14:25:42.142Z,19.85
2022-10-26T14:28:26.419Z,19.38
2022-10-26T14:30:53.814Z,19.17
2022-10-26T14:33:27.660Z,18.88
2022-10-26T14:35:55.856Z,18.52
2022-10-26T14:38:26.997Z,18.23
2022-10-26T14:40:57.452Z,17.98
2022-10-26T14:43:25.948Z,17.80
2022-10-26T14:45:54.499Z,17.68
2022-10-26T14:48:33.283Z,17.49
2022-10-26T14:51:28.280Z,17.33
2022-10-26T14:53:58.837Z,17.23
2022-10-26T14:56:34.753Z,17.05
2022-10-26T14:59:19.179Z,16.88
2022-10-26T15:01:55.685Z,16.68
2022-10-26T15:04:37.698Z,16.46
2022-10-26T15:07:09.014Z,16.29
2022-10-26T15:09:43.169Z,16.09
2022-10-26T15:12:23.219Z,15.90
2022-10-26T15:14:51.303Z,15.72
2022-10-26T15:17:24.962Z,15.52
2022-10-26T15:19:52.323Z,15.31
2022-10-26T15:22:30.975Z,15.07
2022-10-26T15:25:05.803Z,14.69
2022-10-26T15:27:33.003Z,14.45
2022-10-26T15:30:25.525Z,14.09
2022-10-26T15:32:55.881Z,13.80
2022-10-26T15:35:25.918Z,13.56
2022-10-26T15:37:55.169Z,13.30
2022-10-26T15:40:23.261Z,12.95
2022-10-26T15:42:52.999Z,12.72
2022-10-26T15:45:23.954Z,12.55
2022-10-26T15:47:52.715Z,12.38
2022-10-26T15:50:22.399Z,12.17
2022-10-26T15:52:50.794Z,12.00
2022-10-26T15:55:17.782Z,11.87
2022-10-26T15:57:45.062Z,11.72
2022-10-26T16:00:16.957Z,11.52
2022-10-26T16:02:45.593Z,11.42
2022-10-26T16:05:16.094Z,11.30
2022-10-26T16:07:46.801Z,11.22
2022-10-26T16:10:25.184Z,11.10
2022-10-26T16:12:52.902Z,11.01
2022-10-26T16:15:24.852Z,10.95
2022-10-26T16:17:52.767Z,10.88
2022-10-26T16:20:24.650Z,10.78
2022-10-26T16:22:52.881Z,10.73
2022-10-26T16:25:22.844Z,10.66
2022-10-26T16:27:50.731Z,10.55
2022-10-26T16:30:18.963Z,10.51
2022-10-26T16:32:46.198Z,10.40
2022-10-26T16:35:13.522Z,10.32
2022-10-26T16:37:40.582Z,10.22
2022-10-26T16:40:08.569Z,10.15
2022-10-26T16:42:35.782Z,10.11
2022-10-26T16:45:03.201Z,10.11
2022-10-26T16:47:35.621Z,10.07
2022-10-26T16:50:03.881Z,10.07
2022-10-26T16:52:31.119Z,10.04
2022-10-26T16:54:57.883Z,9.94
2022-10-26T16:57:24.904Z,9.92
2022-10-26T16:59:51.812Z,9.87
2022-10-26T17:02:18.987Z,9.85
2022-10-26T17:04:45.918Z,9.80
2022-10-26T17:07:12.926Z,9.73
2022-10-26T17:09:39.714Z,9.75
2022-10-26T17:12:07.003Z,9.73
2022-10-26T17:14:34.369Z,9.72
2022-10-26T17:17:01.326Z,9.75
2022-10-26T17:19:28.119Z,9.74
2022-10-26T17:21:55.160Z,9.75
2022-10-26T17:24:21.895Z,9.74
2022-10-26T17:26:48.845Z,9.71
2022-10-26T17:29:15.706Z,9.65
2022-10-26T17:31:42.674Z,9.61
2022-10-26T17:34:09.422Z,9.56
2022-10-26T17:36:36.415Z,9.52
2022-10-26T17:39:03.355Z,9.46
2022-10-26T17:41:30.468Z,9.34
2022-10-26T17:43:57.259Z,9.27
2022-10-26T17:46:26.193Z,9.20
2022-10-26T17:49:00.497Z,9.13
2022-10-26T17:51:29.294Z,9.07
2022-10-26T17:53:57.109Z,9.00
2022-10-26T17:56:26.884Z,8.94
2022-10-26T17:58:58.930Z,8.87
2022-10-26T18:01:27.449Z,8.83
2022-10-26T18:03:54.871Z,8.79
2022-10-26T18:06:22.480Z,8.76
2022-10-26T18:08:49.368Z,8.72
2022-10-26T18:11:26.530Z,8.63
2022-10-26T18:13:55.867Z,8.62
2022-10-26T18:16:25.293Z,8.56
2022-10-26T18:19:00.295Z,8.49
2022-10-26T18:21:29.699Z,8.51
2022-10-26T18:23:56.545Z,8.47
2022-10-26T18:26:26.575Z,8.45
2022-10-26T18:28:54.153Z,8.41
2022-10-26T18:31:22.916Z,8.40
2022-10-26T18:33:59.123Z,8.35
2022-10-26T18:36:27.167Z,8.34
2022-10-26T18:38:54.580Z,8.28
2022-10-26T18:41:23.420Z,8.35
2022-10-26T18:43:52.970Z,8.37
2022-10-26T18:46:25.204Z,8.43
2022-10-26T18:48:52.725Z,8.49
2022-10-26T18:51:25.328Z,8.55
2022-10-26T18:53:52.418Z,8.56
2022-10-26T18:56:21.458Z,8.59
2022-10-26T18:58:53.554Z,8.62
2022-10-26T19:01:25.786Z,8.65
2022-10-26T19:03:54.821Z,8.65
2022-10-26T19:06:23.320Z,8.65
2022-10-26T19:08:50.120Z,8.69
2022-10-26T19:11:19.251Z,8.73
2022-10-26T19:13:46.599Z,8.75
2022-10-26T19:16:33.235Z,8.75
2022-10-26T19:19:05.834Z,8.76
2022-10-26T19:21:32.814Z,8.78
2022-10-26T19:24:01.281Z,8.76
2022-10-26T19:26:34.317Z,8.73
2022-10-26T19:29:09.841Z,8.78
2022-10-26T19:31:37.870Z,8.74
2022-10-26T19:34:04.980Z,8.77
2022-10-26T19:36:32.990Z,8.79
2022-10-26T19:38:59.948Z,8.73
2022-10-26T19:41:28.234Z,8.79
2022-10-26T19:43:55.674Z,8.82
2022-10-26T19:46:25.387Z,8.84
2022-10-26T19:48:58.549Z,8.80
2022-10-26T19:51:27.681Z,8.84
2022-10-26T19:53:57.829Z,8.86
2022-10-26T19:56:27.646Z,8.84
2022-10-26T19:58:55.805Z,8.89
2022-10-26T20:01:23.008Z,8.91
2022-10-26T20:03:49.812Z,8.93
2022-10-26T20:06:18.374Z,8.93
2022-10-26T20:08:47.249Z,8.97
2022-10-26T20:11:16.253Z,8.99
2022-10-26T20:13:44.771Z,9.02
2022-10-26T20:16:12.943Z,8.99
2022-10-26T20:18:44.043Z,8.99
2022-10-26T20:21:15.603Z,8.96
2022-10-26T20:23:43.420Z,8.95
2022-10-26T20:26:18.238Z,8.93
2022-10-26T20:28:48.381Z,8.93
2022-10-26T20:31:15.421Z,8.93
2022-10-26T20:33:42.304Z,8.96
2022-10-26T20:36:09.612Z,8.95
2022-10-26T20:38:36.845Z,8.92
2022-10-26T20:41:07.737Z,8.88
2022-10-26T20:43:39.061Z,8.83
2022-10-26T20:46:07.573Z,8.77
2022-10-26T20:48:34.762Z,8.74
2022-10-26T20:51:08.015Z,8.70
2022-10-26T20:53:47.208Z,8.65
2022-10-26T20:56:23.379Z,8.59
2022-10-26T20:58:53.425Z,8.54
2022-10-26T21:01:27.601Z,8.47
2022-10-26T21:03:55.971Z,8.43
2022-10-26T21:06:23.264Z,8.38
2022-10-26T21:08:53.891Z,8.37
2022-10-26T21:11:22.478Z,8.39
2022-10-26T21:13:50.428Z,8.44
2022-10-26T21:16:17.792Z,8.46
2022-10-26T21:18:44.643Z,8.49
2022-10-26T21:21:11.701Z,8.54
2022-10-26T21:23:40.650Z,8.59
2022-10-26T21:26:08.732Z,8.67
2022-10-26T21:28:37.921Z,8.71
2022-10-26T21:31:10.669Z,8.73
2022-10-26T21:33:37.732Z,8.72
2022-10-26T21:36:07.600Z,8.69
2022-10-26T21:38:35.112Z,8.66
2022-10-26T21:41:09.066Z,8.70
2022-10-26T21:43:37.513Z,8.73
2022-10-26T21:46:04.738Z,8.75
2022-10-26T21:48:33.722Z,8.79
2022-10-26T21:51:02.256Z,8.78
2022-10-26T21:53:29.398Z,8.81
2022-10-26T21:56:11.248Z,8.85
2022-10-26T21:58:38.686Z,8.88
2022-10-26T22:01:09.624Z,8.90
2022-10-26T22:03:37.421Z,8.91
2022-10-26T22:06:05.345Z,8.98
2022-10-26T22:08:32.217Z,9.02
2022-10-26T22:11:04.520Z,9.06
2022-10-26T22:13:31.260Z,9.08
2022-10-26T22:16:09.898Z,9.05
2022-10-26T22:18:38.832Z,9.07
2022-10-26T22:21:07.194Z,9.07
2022-10-26T22:23:36.553Z,9.12
2022-10-26T22:26:27.117Z,9.19
2022-10-26T22:28:56.213Z,9.18
2022-10-26T22:31:27.415Z,9.17
2022-10-26T22:33:56.506Z,9.19
2022-10-26T22:36:24.582Z,9.18
2022-10-26T22:38:52.025Z,9.18
2022-10-26T22:41:20.757Z,9.21
2022-10-26T22:43:48.057Z,9.22
2022-10-26T22:46:17.870Z,9.23
2022-10-26T22:48:47.736Z,9.26
2022-10-26T22:51:17.292Z,9.27
2022-10-26T22:53:44.092Z,9.21
2022-10-26T22:56:12.959Z,9.21
2022-10-26T22:58:40.511Z,9.17
2022-10-26T23:01:13.298Z,9.20
2022-10-26T23:03:41.084Z,9.20
2022-10-26T23:06:10.618Z,9.22
2022-10-26T23:08:38.229Z,9.16
2022-10-26T23:11:08.434Z,9.23
2022-10-26T23:13:35.867Z,9.28
2022-10-26T23:16:08.000Z,9.29
2022-10-26T23:18:35.853Z,9.28
2022-10-26T23:21:04.407Z,9.31
2022-10-26T23:23:31.473Z,9.31
2022-10-26T23:26:10.226Z,9.26
2022-10-26T23:28:36.999Z,9.28
2022-10-26T23:31:04.239Z,9.29
2022-10-26T23:33:32.037Z,9.27
2022-10-26T23:35:59.444Z,9.29
2022-10-26T23:38:26.277Z,9.29
2022-10-26T23:40:55.644Z,9.29
2022-10-26T23:43:22.762Z,9.28
2022-10-26T23:45:50.213Z,9.30
2022-10-26T23:48:17.628Z,9.31
2022-10-26T23:50:46.165Z,9.33
2022-10-26T23:53:14.477Z,9.30
2022-10-26T23:55:43.741Z,9.27
2022-10-26T23:58:11.401Z,9.24
